sensor_id;sensor_type;location;lat;lon;timestamp;temperature;humidity
3794;DHT22;1912;51.358;12.282;2024-03-22T04:52:43;6.60;1.00
3794;DHT22;1912;51.358;12.282;2024-03-22T04:55:09;6.50;1.00
3794;DHT22;1912;51.358;12.282;2024-03-22T04:57:35;6.50;1.00
3794;DHT22;1912;51.358;12.282;2024-03-22T05:00:00;6.60;1.00
3794;DHT22;1912;51.358;12.282;2024-03-22T05:02:26;6.60;1.00
3794;DHT22;1912;51.358;12.282;2024-03-22T05:04:51;6.60;1.00
3794;DHT22;1912;51.358;12.282;2024-03-22T05:07:17;6.70;1.00
3794;DHT22;1912;51.358;12.282;2024-03-22T05:09:43;6.70;1.00
3794;DHT22;1912;51.358;12.282;2024-03-22T05:12:08;6.70;1.00
3794;DHT22;1912;51.358;12.282;2024-03-22T05:14:34;6.70;1.00
3794;DHT22;1912;51.358;12.282;2024-03-22T05:17:00;6.70;1.00
3794;DHT22;1912;51.358;12.282;2024-03-22T05:19:25;6.70;1.00
3794;DHT22;1912;51.358;12.282;2024-03-22T05:21:51;6.80;1.00
3794;DHT22;1912;51.358;12.282;2024-03-22T05:24:16;6.80;1.00
3794;DHT22;1912;51.358;12.282;2024-03-22T05:26:42;6.80;1.00
3794;DHT22;1912;51.358;12.282;2024-03-22T05:29:08;6.90;1.00
3794;DHT22;1912;51.358;12.282;2024-03-22T05:31:48;6.90;1.00
3794;DHT22;1912;51.358;12.282;2024-03-22T05:34:16;6.90;1.00
3794;DHT22;1912;51.358;12.282;2024-03-22T05:36:42;7.00;1.00
3794;DHT22;1912;51.358;12.282;2024-03-22T05:39:08;7.00;1.00
3794;DHT22;1912;51.358;12.282;2024-03-22T05:41:36;7.00;1.00
3794;DHT22;1912;51.358;12.282;2024-03-22T05:44:02;7.00;1.00
3794;DHT22;1912;51.358;12.282;2024-03-22T05:46:28;7.10;1.00
3794;DHT22;1912;51.358;12.282;2024-03-22T05:48:55;7.10;1.00
3794;DHT22;1912;51.358;12.282;2024-03-22T05:51:21;7.10;1.00
3794;DHT22;1912;51.358;12.282;2024-03-22T05:53:47;7.20;1.00
3794;DHT22;1912;51.358;12.282;2024-03-22T05:56:12;7.20;1.00
3794;DHT22;1912;51.358;12.282;2024-03-22T05:58:38;7.30;1.00
3794;DHT22;1912;51.358;12.282;2024-03-22T06:01:04;7.30;1.00
3794;DHT22;1912;51.358;12.282;2024-03-22T06:03:29;7.30;1.00
3794;DHT22;1912;51.358;12.282;2024-03-22T06:05:55;7.30;1.00
3794;DHT22;1912;51.358;12.282;2024-03-22T06:08:25;7.40;1.00
3794;DHT22;1912;51.358;12.282;2024-03-22T06:10:52;7.40;1.00
3794;DHT22;1912;51.358;12.282;2024-03-22T06:13:19;7.40;1.00
3794;DHT22;1912;51.358;12.282;2024-03-22T06:15:48;7.40;1.00
3794;DHT22;1912;51.358;12.282;2024-03-22T06:18:15;7.50;1.00
3794;DHT22;1912;51.358;12.282;2024-03-22T06:20:41;7.50;1.00
3794;DHT22;1912;51.358;12.282;2024-03-22T06:23:07;7.50;1.00
3794;DHT22;1912;51.358;12.282;2024-03-22T06:25:33;7.60;1.00
3794;DHT22;1912;51.358;12.282;2024-03-22T06:27:59;7.70;1.00
3794;DHT22;1912;51.358;12.282;2024-03-22T06:30:25;7.70;1.00
3794;DHT22;1912;51.358;12.282;2024-03-22T06:32:51;7.90;1.00
3794;DHT22;1912;51.358;12.282;2024-03-22T06:35:16;7.90;1.00
3794;DHT22;1912;51.358;12.282;2024-03-22T06:37:42;8.00;1.00
3794;DHT22;1912;51.358;12.282;2024-03-22T06:40:08;8.00;1.00
3794;DHT22;1912;51.358;12.282;2024-03-22T06:42:35;8.10;1.00
3794;DHT22;1912;51.358;12.282;2024-03-22T06:45:00;8.10;1.00
3794;DHT22;1912;51.358;12.282;2024-03-22T06:47:27;8.20;1.00
3794;DHT22;1912;51.358;12.282;2024-03-22T06:49:53;8.30;1.00
3794;DHT22;1912;51.358;12.282;2024-03-22T06:52:18;8.30;1.00
3794;DHT22;1912;51.358;12.282;2024-03-22T06:54:45;8.40;1.00
3794;DHT22;1912;51.358;12.282;2024-03-22T06:57:11;8.50;1.00
3794;DHT22;1912;51.358;12.282;2024-03-22T06:59:37;8.50;1.00
3794;DHT22;1912;51.358;12.282;2024-03-22T07:02:03;8.50;1.00
3794;DHT22;1912;51.358;12.282;2024-03-22T07:04:29;8.60;1.00
3794;DHT22;1912;51.358;12.282;2024-03-22T07:06:54;8.60;1.00
3794;DHT22;1912;51.358;12.282;2024-03-22T07:09:20;8.70;1.00
3794;DHT22;1912;51.358;12.282;2024-03-22T07:11:46;8.70;1.00
3794;DHT22;1912;51.358;12.282;2024-03-22T07:14:11;8.70;1.00
3794;DHT22;1912;51.358;12.282;2024-03-22T07:16:37;8.80;1.00
3794;DHT22;1912;51.358;12.282;2024-03-22T07:19:03;8.80;1.00
3794;DHT22;1912;51.358;12.282;2024-03-22T07:21:29;8.90;1.00
3794;DHT22;1912;51.358;12.282;2024-03-22T07:23:56;8.90;1.00
3794;DHT22;1912;51.358;12.282;2024-03-22T07:26:21;8.90;1.00
3794;DHT22;1912;51.358;12.282;2024-03-22T07:28:47;9.00;1.00
3794;DHT22;1912;51.358;12.282;2024-03-22T07:31:13;9.00;1.00
3794;DHT22;1912;51.358;12.282;2024-03-22T07:33:39;9.10;1.00
3794;DHT22;1912;51.358;12.282;2024-03-22T07:36:05;9.10;1.00
3794;DHT22;1912;51.358;12.282;2024-03-22T07:38:31;9.20;1.00
3794;DHT22;1912;51.358;12.282;2024-03-22T07:40:57;9.30;1.00
3794;DHT22;1912;51.358;12.282;2024-03-22T07:43:23;9.40;1.00
3794;DHT22;1912;51.358;12.282;2024-03-22T07:45:48;9.40;1.00
3794;DHT22;1912;51.358;12.282;2024-03-22T07:48:14;9.40;1.00
3794;DHT22;1912;51.358;12.282;2024-03-22T07:50:40;9.50;1.00
3794;DHT22;1912;51.358;12.282;2024-03-22T07:53:05;9.60;1.00
3794;DHT22;1912;51.358;12.282;2024-03-22T07:55:31;9.70;1.00
3794;DHT22;1912;51.358;12.282;2024-03-22T07:57:57;9.70;1.00
3794;DHT22;1912;51.358;12.282;2024-03-22T08:00:23;9.80;1.00
3794;DHT22;1912;51.358;12.282;2024-03-22T08:02:52;9.90;1.00
3794;DHT22;1912;51.358;12.282;2024-03-22T08:05:18;9.90;1.00
3794;DHT22;1912;51.358;12.282;2024-03-22T08:07:44;10.10;1.00
3794;DHT22;1912;51.358;12.282;2024-03-22T08:10:10;10.20;1.00
3794;DHT22;1912;51.358;12.282;2024-03-22T08:12:36;10.30;1.00
3794;DHT22;1912;51.358;12.282;2024-03-22T08:15:01;10.40;1.00
3794;DHT22;1912;51.358;12.282;2024-03-22T08:17:28;10.40;1.00
3794;DHT22;1912;51.358;12.282;2024-03-22T08:19:53;10.50;1.00
3794;DHT22;1912;51.358;12.282;2024-03-22T08:22:19;10.70;1.00
3794;DHT22;1912;51.358;12.282;2024-03-22T08:24:45;11.00;1.00
3794;DHT22;1912;51.358;12.282;2024-03-22T08:27:10;10.90;1.00
3794;DHT22;1912;51.358;12.282;2024-03-22T08:29:37;10.80;1.00
3794;DHT22;1912;51.358;12.282;2024-03-22T08:32:04;10.90;1.00
3794;DHT22;1912;51.358;12.282;2024-03-22T08:34:30;10.90;1.00
3794;DHT22;1912;51.358;12.282;2024-03-22T08:36:58;11.00;1.00
3794;DHT22;1912;51.358;12.282;2024-03-22T08:39:24;11.10;1.00
3794;DHT22;1912;51.358;12.282;2024-03-22T08:41:50;11.40;1.00
3794;DHT22;1912;51.358;12.282;2024-03-22T08:44:16;11.40;1.00
3794;DHT22;1912;51.358;12.282;2024-03-22T08:46:42;11.40;1.00
3794;DHT22;1912;51.358;12.282;2024-03-22T08:49:08;11.60;1.00
3794;DHT22;1912;51.358;12.282;2024-03-22T08:51:33;11.70;1.00
3794;DHT22;1912;51.358;12.282;2024-03-22T08:53:59;11.70;1.00
3794;DHT22;1912;51.358;12.282;2024-03-22T08:56:26;11.70;1.00
3794;DHT22;1912;51.358;12.282;2024-03-22T08:58:52;11.70;1.00
3794;DHT22;1912;51.358;12.282;2024-03-22T09:01:17;11.70;1.00
3794;DHT22;1912;51.358;12.282;2024-03-22T09:03:43;11.60;1.00
3794;DHT22;1912;51.358;12.282;2024-03-22T09:06:12;11.70;1.00
3794;DHT22;1912;51.358;12.282;2024-03-22T09:08:38;11.80;1.00
3794;DHT22;1912;51.358;12.282;2024-03-22T09:11:04;12.00;1.00
3794;DHT22;1912;51.358;12.282;2024-03-22T09:13:30;12.20;1.00
3794;DHT22;1912;51.358;12.282;2024-03-22T09:15:58;12.20;1.00
3794;DHT22;1912;51.358;12.282;2024-03-22T09:18:24;12.20;1.00
3794;DHT22;1912;51.358;12.282;2024-03-22T09:20:50;12.30;1.00
3794;DHT22;1912;51.358;12.282;2024-03-22T09:23:17;12.30;1.00
3794;DHT22;1912;51.358;12.282;2024-03-22T09:25:42;12.50;1.00
3794;DHT22;1912;51.358;12.282;2024-03-22T09:28:08;12.70;1.00
3794;DHT22;1912;51.358;12.282;2024-03-22T09:30:38;12.70;1.00
3794;DHT22;1912;51.358;12.282;2024-03-22T09:33:05;12.70;1.00
3794;DHT22;1912;51.358;12.282;2024-03-22T09:35:35;12.80;1.00
3794;DHT22;1912;51.358;12.282;2024-03-22T09:38:02;13.00;1.00
3794;DHT22;1912;51.358;12.282;2024-03-22T09:40:28;13.10;1.00
3794;DHT22;1912;51.358;12.282;2024-03-22T09:42:58;13.10;1.00
3794;DHT22;1912;51.358;12.282;2024-03-22T09:45:28;13.10;1.00
3794;DHT22;1912;51.358;12.282;2024-03-22T09:47:55;13.10;1.00
3794;DHT22;1912;51.358;12.282;2024-03-22T09:50:22;13.00;1.00
3794;DHT22;1912;51.358;12.282;2024-03-22T09:52:48;12.90;1.00
3794;DHT22;1912;51.358;12.282;2024-03-22T09:55:22;12.80;1.00
3794;DHT22;1912;51.358;12.282;2024-03-22T09:57:49;12.80;1.00
3794;DHT22;1912;51.358;12.282;2024-03-22T10:00:20;12.80;1.00
3794;DHT22;1912;51.358;12.282;2024-03-22T10:02:51;12.90;1.00
3794;DHT22;1912;51.358;12.282;2024-03-22T10:05:17;13.00;1.00
3794;DHT22;1912;51.358;12.282;2024-03-22T10:07:43;13.10;1.00
3794;DHT22;1912;51.358;12.282;2024-03-22T10:10:10;13.20;1.00
3794;DHT22;1912;51.358;12.282;2024-03-22T10:12:36;13.10;1.00
3794;DHT22;1912;51.358;12.282;2024-03-22T10:15:02;13.30;1.00
3794;DHT22;1912;51.358;12.282;2024-03-22T10:17:29;13.20;1.00
3794;DHT22;1912;51.358;12.282;2024-03-22T10:19:54;13.30;1.00
3794;DHT22;1912;51.358;12.282;2024-03-22T10:22:20;13.40;1.00
3794;DHT22;1912;51.358;12.282;2024-03-22T10:24:46;13.30;1.00
3794;DHT22;1912;51.358;12.282;2024-03-22T10:27:12;13.30;1.00
3794;DHT22;1912;51.358;12.282;2024-03-22T10:29:39;13.40;1.00
3794;DHT22;1912;51.358;12.282;2024-03-22T10:32:05;13.40;1.00
3794;DHT22;1912;51.358;12.282;2024-03-22T10:34:32;13.40;1.00
3794;DHT22;1912;51.358;12.282;2024-03-22T10:37:02;13.40;1.00
3794;DHT22;1912;51.358;12.282;2024-03-22T10:39:30;13.60;1.00
3794;DHT22;1912;51.358;12.282;2024-03-22T10:41:56;13.70;1.00
3794;DHT22;1912;51.358;12.282;2024-03-22T10:44:21;13.80;1.00
3794;DHT22;1912;51.358;12.282;2024-03-22T10:46:48;13.80;1.00
3794;DHT22;1912;51.358;12.282;2024-03-22T10:49:19;13.80;1.00
3794;DHT22;1912;51.358;12.282;2024-03-22T10:51:58;14.00;1.00
3794;DHT22;1912;51.358;12.282;2024-03-22T10:54:28;14.10;1.00
3794;DHT22;1912;51.358;12.282;2024-03-22T10:56:58;14.40;1.00
3794;DHT22;1912;51.358;12.282;2024-03-22T10:59:24;14.50;1.00
3794;DHT22;1912;51.358;12.282;2024-03-22T11:01:50;14.50;1.00
3794;DHT22;1912;51.358;12.282;2024-03-22T11:04:22;14.80;1.00
3794;DHT22;1912;51.358;12.282;2024-03-22T11:06:51;14.90;1.00
3794;DHT22;1912;51.358;12.282;2024-03-22T11:09:24;14.90;1.00
3794;DHT22;1912;51.358;12.282;2024-03-22T11:11:55;14.90;1.00
3794;DHT22;1912;51.358;12.282;2024-03-22T11:14:22;14.80;1.00
3794;DHT22;1912;51.358;12.282;2024-03-22T11:16:49;15.00;1.00
3794;DHT22;1912;51.358;12.282;2024-03-22T11:19:15;15.10;1.00
3794;DHT22;1912;51.358;12.282;2024-03-22T11:21:41;15.10;1.00
3794;DHT22;1912;51.358;12.282;2024-03-22T11:24:07;15.40;1.00
3794;DHT22;1912;51.358;12.282;2024-03-22T11:26:33;15.50;1.00
3794;DHT22;1912;51.358;12.282;2024-03-22T11:29:00;15.30;1.00
3794;DHT22;1912;51.358;12.282;2024-03-22T11:31:29;15.30;1.00
3794;DHT22;1912;51.358;12.282;2024-03-22T11:33:55;15.40;1.00
3794;DHT22;1912;51.358;12.282;2024-03-22T11:36:21;15.40;1.00
3794;DHT22;1912;51.358;12.282;2024-03-22T11:38:47;15.50;1.00
3794;DHT22;1912;51.358;12.282;2024-03-22T11:41:21;15.40;1.00
3794;DHT22;1912;51.358;12.282;2024-03-22T11:43:50;15.40;1.00
3794;DHT22;1912;51.358;12.282;2024-03-22T11:46:17;15.50;1.00
3794;DHT22;1912;51.358;12.282;2024-03-22T11:48:43;15.40;1.00
3794;DHT22;1912;51.358;12.282;2024-03-22T11:51:09;15.30;1.00
3794;DHT22;1912;51.358;12.282;2024-03-22T11:53:36;15.50;1.00
3794;DHT22;1912;51.358;12.282;2024-03-22T11:56:03;15.50;1.00
3794;DHT22;1912;51.358;12.282;2024-03-22T11:58:30;15.60;1.00
3794;DHT22;1912;51.358;12.282;2024-03-22T12:00:58;15.50;1.00
3794;DHT22;1912;51.358;12.282;2024-03-22T12:03:24;15.60;1.00
3794;DHT22;1912;51.358;12.282;2024-03-22T12:05:54;15.60;1.00
3794;DHT22;1912;51.358;12.282;2024-03-22T12:08:20;15.60;1.00
3794;DHT22;1912;51.358;12.282;2024-03-22T12:10:45;15.60;1.00
3794;DHT22;1912;51.358;12.282;2024-03-22T12:13:11;15.60;1.00
3794;DHT22;1912;51.358;12.282;2024-03-22T12:15:36;15.60;1.00
3794;DHT22;1912;51.358;12.282;2024-03-22T12:18:02;15.70;1.00
3794;DHT22;1912;51.358;12.282;2024-03-22T12:20:28;15.80;1.00
3794;DHT22;1912;51.358;12.282;2024-03-22T12:22:55;15.90;1.00
3794;DHT22;1912;51.358;12.282;2024-03-22T12:25:20;16.00;1.00
3794;DHT22;1912;51.358;12.282;2024-03-22T12:27:46;15.90;1.00
3794;DHT22;1912;51.358;12.282;2024-03-22T12:30:12;15.90;1.00
3794;DHT22;1912;51.358;12.282;2024-03-22T12:32:38;16.00;1.00
3794;DHT22;1912;51.358;12.282;2024-03-22T12:35:04;16.10;1.00
3794;DHT22;1912;51.358;12.282;2024-03-22T12:37:30;16.00;1.00
3794;DHT22;1912;51.358;12.282;2024-03-22T12:39:56;16.10;1.00
3794;DHT22;1912;51.358;12.282;2024-03-22T12:42:22;16.20;1.00
3794;DHT22;1912;51.358;12.282;2024-03-22T12:44:48;16.40;1.00
3794;DHT22;1912;51.358;12.282;2024-03-22T12:47:14;16.40;1.00
3794;DHT22;1912;51.358;12.282;2024-03-22T12:49:39;16.40;1.00
3794;DHT22;1912;51.358;12.282;2024-03-22T12:52:06;16.40;1.00
3794;DHT22;1912;51.358;12.282;2024-03-22T12:54:32;16.50;1.00
3794;DHT22;1912;51.358;12.282;2024-03-22T12:56:57;16.50;1.00
3794;DHT22;1912;51.358;12.282;2024-03-22T12:59:23;16.50;1.00
3794;DHT22;1912;51.358;12.282;2024-03-22T13:01:49;16.50;1.00
3794;DHT22;1912;51.358;12.282;2024-03-22T13:04:14;16.40;1.00
3794;DHT22;1912;51.358;12.282;2024-03-22T13:06:40;16.40;1.00
3794;DHT22;1912;51.358;12.282;2024-03-22T13:09:06;16.40;1.00
3794;DHT22;1912;51.358;12.282;2024-03-22T13:11:35;16.50;1.00
3794;DHT22;1912;51.358;12.282;2024-03-22T13:14:00;16.50;1.00
3794;DHT22;1912;51.358;12.282;2024-03-22T13:16:26;16.60;1.00
3794;DHT22;1912;51.358;12.282;2024-03-22T13:18:53;16.80;1.00
3794;DHT22;1912;51.358;12.282;2024-03-22T13:21:18;17.00;1.00
3794;DHT22;1912;51.358;12.282;2024-03-22T13:23:44;17.20;1.00
3794;DHT22;1912;51.358;12.282;2024-03-22T13:26:10;17.20;1.00
3794;DHT22;1912;51.358;12.282;2024-03-22T13:28:35;17.20;1.00
3794;DHT22;1912;51.358;12.282;2024-03-22T13:31:03;17.10;1.00
3794;DHT22;1912;51.358;12.282;2024-03-22T13:33:33;17.20;1.00
3794;DHT22;1912;51.358;12.282;2024-03-22T13:36:00;17.20;1.00
3794;DHT22;1912;51.358;12.282;2024-03-22T13:38:26;17.30;1.00
3794;DHT22;1912;51.358;12.282;2024-03-22T13:40:56;17.30;1.00
3794;DHT22;1912;51.358;12.282;2024-03-22T13:43:22;17.40;1.00
3794;DHT22;1912;51.358;12.282;2024-03-22T13:45:52;17.30;1.00
3794;DHT22;1912;51.358;12.282;2024-03-22T13:48:22;17.10;1.00
3794;DHT22;1912;51.358;12.282;2024-03-22T13:50:56;17.10;1.00
3794;DHT22;1912;51.358;12.282;2024-03-22T13:53:22;17.00;1.00
3794;DHT22;1912;51.358;12.282;2024-03-22T13:55:49;16.70;1.00
3794;DHT22;1912;51.358;12.282;2024-03-22T13:58:15;16.60;1.00
3794;DHT22;1912;51.358;12.282;2024-03-22T14:00:41;16.50;1.00
3794;DHT22;1912;51.358;12.282;2024-03-22T14:03:07;16.50;1.00
3794;DHT22;1912;51.358;12.282;2024-03-22T14:05:33;16.40;1.00
3794;DHT22;1912;51.358;12.282;2024-03-22T14:07:59;16.40;1.00
3794;DHT22;1912;51.358;12.282;2024-03-22T14:10:25;16.30;1.00
3794;DHT22;1912;51.358;12.282;2024-03-22T14:12:52;16.30;1.00
3794;DHT22;1912;51.358;12.282;2024-03-22T14:15:19;16.30;1.00
3794;DHT22;1912;51.358;12.282;2024-03-22T14:17:45;16.20;1.00
3794;DHT22;1912;51.358;12.282;2024-03-22T14:20:11;16.30;1.00
3794;DHT22;1912;51.358;12.282;2024-03-22T14:22:40;16.20;1.00
3794;DHT22;1912;51.358;12.282;2024-03-22T14:25:06;16.10;1.00
3794;DHT22;1912;51.358;12.282;2024-03-22T14:27:34;16.10;1.00
3794;DHT22;1912;51.358;12.282;2024-03-22T14:30:00;16.00;1.00
3794;DHT22;1912;51.358;12.282;2024-03-22T14:32:30;16.00;1.00
3794;DHT22;1912;51.358;12.282;2024-03-22T14:34:56;15.90;1.00
3794;DHT22;1912;51.358;12.282;2024-03-22T14:37:22;15.90;1.00
3794;DHT22;1912;51.358;12.282;2024-03-22T14:39:47;15.90;1.00
3794;DHT22;1912;51.358;12.282;2024-03-22T14:42:13;15.80;1.00
3794;DHT22;1912;51.358;12.282;2024-03-22T14:44:39;15.80;1.00
3794;DHT22;1912;51.358;12.282;2024-03-22T14:47:04;15.80;1.00
3794;DHT22;1912;51.358;12.282;2024-03-22T14:49:30;15.70;1.00
3794;DHT22;1912;51.358;12.282;2024-03-22T14:51:56;15.70;1.00
3794;DHT22;1912;51.358;12.282;2024-03-22T14:54:22;15.80;1.00
3794;DHT22;1912;51.358;12.282;2024-03-22T14:56:48;15.70;1.00
3794;DHT22;1912;51.358;12.282;2024-03-22T14:59:14;15.70;1.00
3794;DHT22;1912;51.358;12.282;2024-03-22T15:01:39;15.60;1.00
3794;DHT22;1912;51.358;12.282;2024-03-22T15:04:05;15.60;1.00
3794;DHT22;1912;51.358;12.282;2024-03-22T15:06:32;15.60;1.00
3794;DHT22;1912;51.358;12.282;2024-03-22T15:08:57;15.50;1.00
3794;DHT22;1912;51.358;12.282;2024-03-22T15:11:23;15.40;1.00
3794;DHT22;1912;51.358;12.282;2024-03-22T15:13:49;15.30;1.00
3794;DHT22;1912;51.358;12.282;2024-03-22T15:16:15;15.30;1.00
3794;DHT22;1912;51.358;12.282;2024-03-22T15:18:41;15.30;1.00
3794;DHT22;1912;51.358;12.282;2024-03-22T15:21:07;15.20;1.00
3794;DHT22;1912;51.358;12.282;2024-03-22T15:23:34;15.20;1.00
3794;DHT22;1912;51.358;12.282;2024-03-22T15:26:00;15.10;1.00
3794;DHT22;1912;51.358;12.282;2024-03-22T15:28:26;15.00;1.00
3794;DHT22;1912;51.358;12.282;2024-03-22T15:30:52;14.80;1.00
3794;DHT22;1912;51.358;12.282;2024-03-22T15:33:18;14.70;1.00
3794;DHT22;1912;51.358;12.282;2024-03-22T15:35:44;14.70;1.00
3794;DHT22;1912;51.358;12.282;2024-03-22T15:38:15;14.60;1.00
3794;DHT22;1912;51.358;12.282;2024-03-22T15:40:41;14.60;1.00
3794;DHT22;1912;51.358;12.282;2024-03-22T15:43:08;14.60;1.00
3794;DHT22;1912;51.358;12.282;2024-03-22T15:45:34;14.60;1.00
3794;DHT22;1912;51.358;12.282;2024-03-22T15:48:03;14.60;1.00
3794;DHT22;1912;51.358;12.282;2024-03-22T15:50:35;14.60;1.00
3794;DHT22;1912;51.358;12.282;2024-03-22T15:53:01;14.60;1.00
3794;DHT22;1912;51.358;12.282;2024-03-22T15:55:26;14.60;1.00
3794;DHT22;1912;51.358;12.282;2024-03-22T15:57:54;14.60;1.00
3794;DHT22;1912;51.358;12.282;2024-03-22T16:00:21;14.50;1.00
3794;DHT22;1912;51.358;12.282;2024-03-22T16:02:48;14.50;1.00
3794;DHT22;1912;51.358;12.282;2024-03-22T16:05:17;14.50;1.00
3794;DHT22;1912;51.358;12.282;2024-03-22T16:07:43;14.40;1.00
3794;DHT22;1912;51.358;12.282;2024-03-22T16:10:09;14.40;1.00
3794;DHT22;1912;51.358;12.282;2024-03-22T16:12:35;14.40;1.00
3794;DHT22;1912;51.358;12.282;2024-03-22T16:15:01;14.50;1.00
3794;DHT22;1912;51.358;12.282;2024-03-22T16:17:26;14.60;1.00
3794;DHT22;1912;51.358;12.282;2024-03-22T16:19:52;14.50;1.00
3794;DHT22;1912;51.358;12.282;2024-03-22T16:22:18;14.50;1.00
3794;DHT22;1912;51.358;12.282;2024-03-22T16:24:43;14.40;1.00
3794;DHT22;1912;51.358;12.282;2024-03-22T16:27:09;14.40;1.00
3794;DHT22;1912;51.358;12.282;2024-03-22T16:29:35;14.40;1.00
3794;DHT22;1912;51.358;12.282;2024-03-22T16:32:00;14.30;1.00
3794;DHT22;1912;51.358;12.282;2024-03-22T16:34:29;14.20;1.00
3794;DHT22;1912;51.358;12.282;2024-03-22T16:36:55;14.00;1.00
3794;DHT22;1912;51.358;12.282;2024-03-22T16:39:21;14.00;1.00
3794;DHT22;1912;51.358;12.282;2024-03-22T16:41:47;13.90;1.00
3794;DHT22;1912;51.358;12.282;2024-03-22T16:44:13;13.80;1.00
3794;DHT22;1912;51.358;12.282;2024-03-22T16:46:41;13.70;1.00
3794;DHT22;1912;51.358;12.282;2024-03-22T16:49:07;13.70;1.00
3794;DHT22;1912;51.358;12.282;2024-03-22T16:51:33;13.60;1.00
3794;DHT22;1912;51.358;12.282;2024-03-22T16:53:59;13.50;1.00
3794;DHT22;1912;51.358;12.282;2024-03-22T16:56:25;13.40;1.00
3794;DHT22;1912;51.358;12.282;2024-03-22T16:58:51;13.30;1.00
3794;DHT22;1912;51.358;12.282;2024-03-22T17:01:17;13.30;1.00
3794;DHT22;1912;51.358;12.282;2024-03-22T17:03:43;13.20;1.00
3794;DHT22;1912;51.358;12.282;2024-03-22T17:06:09;13.10;1.00
3794;DHT22;1912;51.358;12.282;2024-03-22T17:08:34;13.10;1.00
3794;DHT22;1912;51.358;12.282;2024-03-22T17:11:00;13.00;1.00
3794;DHT22;1912;51.358;12.282;2024-03-22T17:13:26;13.00;1.00
3794;DHT22;1912;51.358;12.282;2024-03-22T17:15:52;13.00;1.00
3794;DHT22;1912;51.358;12.282;2024-03-22T17:18:22;13.10;1.00
3794;DHT22;1912;51.358;12.282;2024-03-22T17:20:48;13.10;1.00
3794;DHT22;1912;51.358;12.282;2024-03-22T17:23:14;13.10;1.00
3794;DHT22;1912;51.358;12.282;2024-03-22T17:25:40;13.10;1.00
3794;DHT22;1912;51.358;12.282;2024-03-22T17:28:06;13.10;1.00
3794;DHT22;1912;51.358;12.282;2024-03-22T17:30:33;13.10;1.00
3794;DHT22;1912;51.358;12.282;2024-03-22T17:32:59;13.10;1.00
3794;DHT22;1912;51.358;12.282;2024-03-22T17:35:25;13.10;1.00
3794;DHT22;1912;51.358;12.282;2024-03-22T17:37:54;13.00;1.00
3794;DHT22;1912;51.358;12.282;2024-03-22T17:40:20;13.00;1.00
3794;DHT22;1912;51.358;12.282;2024-03-22T17:42:45;12.90;1.00
3794;DHT22;1912;51.358;12.282;2024-03-22T17:45:12;12.90;1.00
3794;DHT22;1912;51.358;12.282;2024-03-22T17:47:37;12.80;1.00
3794;DHT22;1912;51.358;12.282;2024-03-22T17:50:03;12.70;1.00
3794;DHT22;1912;51.358;12.282;2024-03-22T17:52:29;12.70;1.00
3794;DHT22;1912;51.358;12.282;2024-03-22T17:54:55;12.70;1.00
3794;DHT22;1912;51.358;12.282;2024-03-22T17:57:20;12.70;1.00
3794;DHT22;1912;51.358;12.282;2024-03-22T17:59:46;12.70;1.00
3794;DHT22;1912;51.358;12.282;2024-03-22T18:02:12;12.70;1.00
3794;DHT22;1912;51.358;12.282;2024-03-22T18:04:37;12.70;1.00
3794;DHT22;1912;51.358;12.282;2024-03-22T18:07:03;12.70;1.00
3794;DHT22;1912;51.358;12.282;2024-03-22T18:09:29;12.80;1.00
3794;DHT22;1912;51.358;12.282;2024-03-22T18:11:56;12.70;1.00
3794;DHT22;1912;51.358;12.282;2024-03-22T18:14:22;12.70;1.00
3794;DHT22;1912;51.358;12.282;2024-03-22T18:16:48;12.70;1.00
3794;DHT22;1912;51.358;12.282;2024-03-22T18:19:17;12.60;1.00
3794;DHT22;1912;51.358;12.282;2024-03-22T18:21:43;12.60;1.00
3794;DHT22;1912;51.358;12.282;2024-03-22T18:24:09;12.60;1.00
3794;DHT22;1912;51.358;12.282;2024-03-22T18:26:35;12.60;1.00
3794;DHT22;1912;51.358;12.282;2024-03-22T18:29:01;12.60;1.00
3794;DHT22;1912;51.358;12.282;2024-03-22T18:31:30;12.50;1.00
3794;DHT22;1912;51.358;12.282;2024-03-22T18:33:56;12.50;1.00
3794;DHT22;1912;51.358;12.282;2024-03-22T18:36:21;12.50;1.00
3794;DHT22;1912;51.358;12.282;2024-03-22T18:38:47;12.60;1.00
3794;DHT22;1912;51.358;12.282;2024-03-22T18:41:14;12.50;1.00
3794;DHT22;1912;51.358;12.282;2024-03-22T18:43:40;12.60;1.00
3794;DHT22;1912;51.358;12.282;2024-03-22T18:46:06;12.50;1.00
3794;DHT22;1912;51.358;12.282;2024-03-22T18:48:32;12.50;1.00
3794;DHT22;1912;51.358;12.282;2024-03-22T18:51:04;12.50;1.00
3794;DHT22;1912;51.358;12.282;2024-03-22T18:53:35;12.50;1.00
3794;DHT22;1912;51.358;12.282;2024-03-22T18:56:01;12.40;1.00
3794;DHT22;1912;51.358;12.282;2024-03-22T18:58:28;12.40;1.00
3794;DHT22;1912;51.358;12.282;2024-03-22T19:00:54;12.40;1.00
3794;DHT22;1912;51.358;12.282;2024-03-22T19:03:20;12.30;1.00
3794;DHT22;1912;51.358;12.282;2024-03-22T19:05:45;12.30;1.00
3794;DHT22;1912;51.358;12.282;2024-03-22T19:08:11;12.20;1.00
3794;DHT22;1912;51.358;12.282;2024-03-22T19:10:38;12.20;1.00
3794;DHT22;1912;51.358;12.282;2024-03-22T19:13:04;12.10;1.00
3794;DHT22;1912;51.358;12.282;2024-03-22T19:15:30;12.10;1.00
3794;DHT22;1912;51.358;12.282;2024-03-22T19:17:57;12.20;1.00
3794;DHT22;1912;51.358;12.282;2024-03-22T19:20:23;12.20;1.00
3794;DHT22;1912;51.358;12.282;2024-03-22T19:22:49;12.20;1.00
3794;DHT22;1912;51.358;12.282;2024-03-22T19:25:16;12.10;1.00
3794;DHT22;1912;51.358;12.282;2024-03-22T19:27:43;12.10;1.00
3794;DHT22;1912;51.358;12.282;2024-03-22T19:30:09;12.10;1.00
3794;DHT22;1912;51.358;12.282;2024-03-22T19:32:36;12.00;1.00
3794;DHT22;1912;51.358;12.282;2024-03-22T19:35:01;12.00;1.00
3794;DHT22;1912;51.358;12.282;2024-03-22T19:37:27;12.00;1.00
3794;DHT22;1912;51.358;12.282;2024-03-22T19:39:53;11.90;1.00
3794;DHT22;1912;51.358;12.282;2024-03-22T19:42:18;12.00;1.00
3794;DHT22;1912;51.358;12.282;2024-03-22T19:44:44;11.90;1.00
3794;DHT22;1912;51.358;12.282;2024-03-22T19:47:10;11.80;1.00
3794;DHT22;1912;51.358;12.282;2024-03-22T19:49:36;11.80;1.00
3794;DHT22;1912;51.358;12.282;2024-03-22T19:52:02;11.90;1.00
3794;DHT22;1912;51.358;12.282;2024-03-22T19:54:30;11.90;1.00
3794;DHT22;1912;51.358;12.282;2024-03-22T19:56:56;11.80;1.00
3794;DHT22;1912;51.358;12.282;2024-03-22T19:59:22;11.60;1.00
3794;DHT22;1912;51.358;12.282;2024-03-22T20:01:49;11.60;1.00
3794;DHT22;1912;51.358;12.282;2024-03-22T20:04:14;11.50;1.00
3794;DHT22;1912;51.358;12.282;2024-03-22T20:06:40;11.50;1.00
3794;DHT22;1912;51.358;12.282;2024-03-22T20:09:06;11.40;1.00
3794;DHT22;1912;51.358;12.282;2024-03-22T20:11:31;11.50;1.00
3794;DHT22;1912;51.358;12.282;2024-03-22T20:13:57;11.50;1.00
3794;DHT22;1912;51.358;12.282;2024-03-22T20:16:24;11.50;1.00
3794;DHT22;1912;51.358;12.282;2024-03-22T20:18:49;11.60;1.00
3794;DHT22;1912;51.358;12.282;2024-03-22T20:21:15;11.60;1.00
3794;DHT22;1912;51.358;12.282;2024-03-22T20:23:41;11.60;1.00
3794;DHT22;1912;51.358;12.282;2024-03-22T20:26:06;11.60;1.00
3794;DHT22;1912;51.358;12.282;2024-03-22T20:28:32;11.60;1.00
3794;DHT22;1912;51.358;12.282;2024-03-22T20:30:58;11.70;1.00
3794;DHT22;1912;51.358;12.282;2024-03-22T20:33:24;11.60;1.00
3794;DHT22;1912;51.358;12.282;2024-03-22T20:35:49;11.60;1.00
